createdAt,value
2018-02-21T00:02:22.582Z,93.10
2018-02-21T00:04:50.830Z,93.10
2018-02-21T00:07:19.866Z,92.90
2018-02-21T00:09:48.158Z,92.90
2018-02-21T00:12:16.438Z,92.80
2018-02-21T00:14:44.693Z,92.80
2018-02-21T00:17:12.961Z,92.60
2018-02-21T00:19:42.715Z,92.50
2018-02-21T00:22:12.705Z,92.50
2018-02-21T00:24:41.020Z,92.30
2018-02-21T00:27:09.282Z,92.10
2018-02-21T00:29:37.541Z,92.00
2018-02-21T00:32:05.830Z,91.90
2018-02-21T00:34:34.103Z,91.90
2018-02-21T00:37:03.130Z,91.70
2018-02-21T00:39:31.386Z,91.70
2018-02-21T00:41:59.657Z,91.60
2018-02-21T00:44:27.978Z,91.40
2018-02-21T00:46:56.236Z,91.20
2018-02-21T00:49:24.499Z,91.30
2018-02-21T00:51:53.515Z,91.40
2018-02-21T00:54:21.823Z,91.40
2018-02-21T00:56:50.075Z,91.30
2018-02-21T00:59:18.339Z,91.30
2018-02-21T01:01:47.365Z,91.50
2018-02-21T01:04:15.638Z,91.50
2018-02-21T01:06:43.879Z,91.50
2018-02-21T01:09:12.156Z,91.70
2018-02-21T01:11:40.405Z,91.80
2018-02-21T01:14:08.722Z,92.00
2018-02-21T01:16:36.971Z,92.10
2018-02-21T01:19:05.234Z,92.10
2018-02-21T01:21:33.479Z,92.30
2018-02-21T01:24:02.531Z,93.00
2018-02-21T01:26:30.790Z,92.60
2018-02-21T01:28:59.059Z,92.80
2018-02-21T01:31:27.306Z,92.90
2018-02-21T01:33:55.594Z,93.00
2018-02-21T01:36:23.938Z,93.00
2018-02-21T01:38:52.183Z,93.00
2018-02-21T01:41:21.215Z,93.10
2018-02-21T01:43:49.455Z,93.10
2018-02-21T01:46:17.758Z,93.30
2018-02-21T01:48:46.055Z,93.70
2018-02-21T01:51:14.338Z,94.00
2018-02-21T01:53:42.593Z,94.00
2018-02-21T01:56:10.862Z,94.00
2018-02-21T01:58:39.877Z,94.10
2018-02-21T02:01:08.188Z,94.10
2018-02-21T02:03:36.452Z,94.40
2018-02-21T02:06:04.798Z,94.60
2018-02-21T02:08:33.845Z,94.60
2018-02-21T02:11:02.154Z,94.60
2018-02-21T02:13:30.419Z,94.40
2018-02-21T02:15:58.691Z,94.50
2018-02-21T02:18:26.976Z,94.50
2018-02-21T02:20:55.257Z,94.70
2018-02-21T02:23:23.519Z,94.70
2018-02-21T02:25:51.789Z,94.80
2018-02-21T02:28:20.103Z,94.90
2018-02-21T02:30:48.390Z,95.20
2018-02-21T02:33:16.635Z,95.30
2018-02-21T02:35:44.916Z,95.30
2018-02-21T02:38:24.919Z,95.20
2018-02-21T02:40:53.194Z,95.20
2018-02-21T02:43:21.451Z,95.20
2018-02-21T02:45:49.718Z,95.40
2018-02-21T02:48:17.979Z,95.60
2018-02-21T02:50:47.015Z,95.90
2018-02-21T02:53:15.290Z,95.90
2018-02-21T02:55:43.569Z,95.80
2018-02-21T02:58:11.820Z,95.60
2018-02-21T03:00:40.850Z,95.70
2018-02-21T03:03:09.168Z,95.70
2018-02-21T03:05:37.416Z,95.80
2018-02-21T03:08:05.675Z,95.50
2018-02-21T03:10:33.974Z,95.60
2018-02-21T03:13:02.230Z,95.40
2018-02-21T03:15:30.499Z,95.40
2018-02-21T03:17:59.516Z,95.30
2018-02-21T03:20:27.772Z,95.30
2018-02-21T03:22:56.477Z,95.40
2018-02-21T03:25:25.609Z,95.40
2018-02-21T03:27:53.873Z,95.40
2018-02-21T03:30:22.150Z,95.40
2018-02-21T03:32:50.402Z,95.80
2018-02-21T03:35:18.671Z,95.40
2018-02-21T03:37:46.917Z,95.80
2018-02-21T03:40:15.184Z,95.30
2018-02-21T03:42:43.435Z,95.30
2018-02-21T03:45:12.478Z,95.30
2018-02-21T03:47:40.749Z,95.30
2018-02-21T03:50:09.045Z,95.20
2018-02-21T03:52:37.298Z,95.30
2018-02-21T03:55:05.579Z,95.50
2018-02-21T03:57:33.898Z,95.40
2018-02-21T04:00:02.168Z,95.40
2018-02-21T04:02:30.450Z,95.50
2018-02-21T04:04:58.700Z,95.30
2018-02-21T04:07:26.968Z,95.30
2018-02-21T04:09:55.994Z,95.00
2018-02-21T04:12:24.256Z,95.00
2018-02-21T04:14:52.602Z,94.90
2018-02-21T04:17:20.838Z,94.90
2018-02-21T04:19:49.082Z,94.70
2018-02-21T04:22:18.127Z,94.80
2018-02-21T04:24:46.380Z,94.80
2018-02-21T04:27:14.686Z,94.80
2018-02-21T04:29:42.966Z,94.80
2018-02-21T04:32:11.226Z,94.90
2018-02-21T04:34:39.491Z,94.80
2018-02-21T04:37:08.513Z,95.00
2018-02-21T04:39:36.778Z,95.00
2018-02-21T04:42:05.043Z,95.20
2018-02-21T04:44:34.081Z,95.30
2018-02-21T04:47:02.410Z,95.30
2018-02-21T04:49:30.644Z,95.40
2018-02-21T04:51:58.908Z,95.70
2018-02-21T04:54:29.699Z,95.90
2018-02-21T04:57:03.660Z,96.00
2018-02-21T04:59:47.570Z,96.10
2018-02-21T05:02:15.839Z,96.40
2018-02-21T05:04:44.094Z,96.50
2018-02-21T05:07:12.383Z,96.60
2018-02-21T05:09:41.087Z,96.80
2018-02-21T05:12:09.361Z,96.80
2018-02-21T05:14:37.611Z,96.90
2018-02-21T05:17:05.887Z,97.10
2018-02-21T05:19:34.198Z,97.30
2018-02-21T05:22:02.523Z,97.20
2018-02-21T05:24:30.747Z,97.40
2018-02-21T05:26:59.042Z,97.40
2018-02-21T05:29:27.294Z,97.60
2018-02-21T05:31:55.584Z,97.70
2018-02-21T05:34:23.898Z,97.70
2018-02-21T05:36:52.994Z,98.00
2018-02-21T05:39:21.249Z,97.90
2018-02-21T05:41:49.538Z,97.90
2018-02-21T05:44:17.796Z,97.90
2018-02-21T05:46:46.910Z,97.80
2018-02-21T05:49:15.162Z,97.70
2018-02-21T05:51:44.220Z,98.10
2018-02-21T05:54:12.471Z,97.80
2018-02-21T05:56:40.731Z,97.70
2018-02-21T05:59:09.776Z,97.60
2018-02-21T06:01:38.034Z,97.50
2018-02-21T06:04:06.297Z,97.40
2018-02-21T06:06:35.344Z,97.20
2018-02-21T06:09:03.578Z,97.30
2018-02-21T06:11:32.615Z,96.90
2018-02-21T06:14:00.918Z,96.90
2018-02-21T06:16:29.181Z,96.60
2018-02-21T06:18:57.452Z,96.60
2018-02-21T06:21:25.732Z,96.80
2018-02-21T06:23:54.006Z,97.00
2018-02-21T06:26:22.242Z,96.90
2018-02-21T06:28:50.960Z,96.90
2018-02-21T06:31:20.705Z,97.20
2018-02-21T06:33:54.179Z,97.20
2018-02-21T06:36:23.232Z,97.10
2018-02-21T06:38:51.502Z,97.10
2018-02-21T06:41:19.782Z,97.30
2018-02-21T06:43:48.205Z,97.30
2018-02-21T06:46:16.427Z,97.20
2018-02-21T06:48:44.698Z,97.00
2018-02-21T06:51:13.028Z,97.00
2018-02-21T06:53:41.286Z,96.80
2018-02-21T06:56:09.549Z,96.80
2018-02-21T06:58:37.835Z,96.60
2018-02-21T07:01:06.081Z,96.10
2018-02-21T07:03:35.126Z,96.20
2018-02-21T07:06:03.386Z,96.20
2018-02-21T07:08:31.718Z,96.40
2018-02-21T07:10:59.953Z,96.30
2018-02-21T07:13:29.068Z,95.50
2018-02-21T07:15:57.358Z,95.50
2018-02-21T07:18:25.620Z,95.00
2018-02-21T07:20:53.913Z,94.00
2018-02-21T07:23:22.199Z,93.20
2018-02-21T07:25:50.442Z,92.10
2018-02-21T07:28:18.755Z,90.80
2018-02-21T07:30:47.002Z,90.20
2018-02-21T07:33:16.026Z,86.60
2018-02-21T07:35:44.272Z,86.60
2018-02-21T07:38:13.299Z,81.50
2018-02-21T07:40:41.553Z,81.30
2018-02-21T07:43:10.595Z,76.70
2018-02-21T07:45:38.872Z,76.60
2018-02-21T07:48:07.139Z,77.00
2018-02-21T07:50:35.390Z,74.00
2018-02-21T07:53:04.426Z,69.90
2018-02-21T07:55:32.836Z,69.70
2018-02-21T07:58:01.351Z,69.00
2018-02-21T08:00:29.741Z,67.20
2018-02-21T08:02:58.265Z,64.90
2018-02-21T08:05:26.694Z,63.00
2018-02-21T08:07:56.104Z,56.90
2018-02-21T08:10:24.694Z,56.90
2018-02-21T08:12:53.756Z,54.70
2018-02-21T08:15:22.059Z,54.60
2018-02-21T08:17:50.284Z,52.30
2018-02-21T08:20:19.307Z,50.40
2018-02-21T08:22:47.602Z,50.40
2018-02-21T08:25:15.858Z,49.10
2018-02-21T08:27:44.135Z,47.70
2018-02-21T08:30:12.398Z,46.10
2018-02-21T08:32:40.659Z,45.50
2018-02-21T08:35:10.421Z,43.60
2018-02-21T08:37:38.686Z,43.60
2018-02-21T08:40:06.951Z,43.40
2018-02-21T08:42:35.992Z,43.70
2018-02-21T08:45:04.250Z,43.70
2018-02-21T08:47:32.518Z,43.60
2018-02-21T08:50:01.902Z,44.50
2018-02-21T08:52:31.698Z,43.60
2018-02-21T08:54:59.945Z,43.60
2018-02-21T08:57:28.227Z,43.30
2018-02-21T08:59:56.471Z,43.00
2018-02-21T09:02:25.527Z,43.70
2018-02-21T09:04:53.788Z,43.70
2018-02-21T09:07:22.063Z,43.80
2018-02-21T09:09:50.381Z,43.50
2018-02-21T09:12:18.648Z,43.30
2018-02-21T09:14:46.902Z,42.50
2018-02-21T09:17:15.173Z,43.10
2018-02-21T09:19:44.190Z,41.30
2018-02-21T09:22:12.479Z,41.30
2018-02-21T09:24:40.770Z,42.00
2018-02-21T09:27:09.052Z,42.10
2018-02-21T09:29:37.314Z,41.90
2018-02-21T09:32:05.581Z,42.40
2018-02-21T09:34:34.626Z,41.90
2018-02-21T09:37:02.953Z,41.90
2018-02-21T09:39:31.731Z,42.10
2018-02-21T09:41:59.986Z,42.20
2018-02-21T09:44:28.248Z,42.80
2018-02-21T09:46:56.491Z,44.00
2018-02-21T09:49:25.528Z,45.40
2018-02-21T09:51:53.794Z,45.30
2018-02-21T09:54:22.076Z,45.30
2018-02-21T09:56:50.334Z,46.20
2018-02-21T09:59:19.414Z,47.70
2018-02-21T10:01:47.650Z,47.60
2018-02-21T10:04:15.938Z,47.30
2018-02-21T10:06:44.178Z,47.80
2018-02-21T10:09:13.213Z,48.20
2018-02-21T10:11:41.476Z,48.20
2018-02-21T10:14:09.784Z,48.00
2018-02-21T10:16:38.211Z,48.20
2018-02-21T10:19:07.514Z,49.30
2018-02-21T10:21:36.810Z,50.20
2018-02-21T10:24:05.410Z,50.20
2018-02-21T10:26:34.604Z,50.50
2018-02-21T10:29:03.213Z,50.40
2018-02-21T10:31:32.561Z,49.00
2018-02-21T10:34:00.925Z,49.00
2018-02-21T10:36:29.671Z,49.20
2018-02-21T10:38:58.264Z,48.90
2018-02-21T10:41:26.849Z,48.90
2018-02-21T10:43:55.598Z,48.70
2018-02-21T10:46:26.571Z,47.50
2018-02-21T10:48:55.732Z,46.90
2018-02-21T10:51:24.268Z,46.90
2018-02-21T10:53:53.415Z,46.60
2018-02-21T10:56:21.957Z,46.60
2018-02-21T10:58:50.573Z,46.90
2018-02-21T11:01:27.839Z,46.40
2018-02-21T11:03:56.427Z,46.00
2018-02-21T11:06:25.219Z,46.60
2018-02-21T11:08:54.116Z,46.70
2018-02-21T11:11:22.887Z,46.60
2018-02-21T11:13:51.307Z,46.30
2018-02-21T11:16:20.415Z,44.50
2018-02-21T11:18:49.450Z,45.60
2018-02-21T11:21:17.715Z,45.00
2018-02-21T11:23:46.057Z,45.30
2018-02-21T11:26:14.861Z,45.10
2018-02-21T11:28:43.203Z,45.30
2018-02-21T11:31:11.461Z,45.50
2018-02-21T11:33:39.743Z,45.60
2018-02-21T11:36:07.993Z,45.30
2018-02-21T11:38:37.044Z,44.90
2018-02-21T11:41:05.296Z,44.90
2018-02-21T11:43:33.578Z,45.50
2018-02-21T11:46:01.835Z,45.70
2018-02-21T11:48:30.153Z,46.20
2018-02-21T11:50:58.402Z,47.00
2018-02-21T11:53:27.582Z,46.90
2018-02-21T11:55:55.846Z,46.80
2018-02-21T11:58:24.146Z,46.80
2018-02-21T12:00:52.493Z,46.70
2018-02-21T12:03:20.758Z,45.60
2018-02-21T12:05:49.018Z,45.80
2018-02-21T12:08:18.062Z,46.20
2018-02-21T12:10:46.318Z,46.20
2018-02-21T12:13:14.594Z,45.30
2018-02-21T12:15:42.846Z,45.20
2018-02-21T12:18:11.894Z,46.20
2018-02-21T12:20:40.151Z,46.10
2018-02-21T12:23:08.431Z,45.90
2018-02-21T12:25:36.724Z,45.90
2018-02-21T12:28:04.994Z,45.80
2018-02-21T12:30:33.256Z,45.60
2018-02-21T12:33:03.098Z,45.50
2018-02-21T12:35:31.367Z,45.50
2018-02-21T12:38:03.213Z,45.80
2018-02-21T12:40:37.937Z,45.60
2018-02-21T12:43:16.204Z,45.60
2018-02-21T12:45:47.571Z,46.20
2018-02-21T12:48:15.844Z,45.20
2018-02-21T12:50:44.094Z,44.90
2018-02-21T12:53:12.362Z,45.60
2018-02-21T12:55:41.397Z,46.40
2018-02-21T12:58:09.671Z,46.40
2018-02-21T13:00:37.940Z,46.80
2018-02-21T13:03:06.214Z,46.60
2018-02-21T13:05:34.477Z,47.30
2018-02-21T13:08:03.531Z,46.70
2018-02-21T13:10:31.818Z,46.70
2018-02-21T13:13:00.867Z,46.50
2018-02-21T13:15:29.938Z,46.80
2018-02-21T13:17:59.852Z,46.70
2018-02-21T13:20:28.217Z,46.70
2018-02-21T13:22:56.466Z,47.40
2018-02-21T13:25:24.734Z,47.60
2018-02-21T13:27:53.742Z,47.40
2018-02-21T13:30:22.007Z,47.40
2018-02-21T13:32:51.026Z,48.40
2018-02-21T13:35:19.295Z,48.40
2018-02-21T13:37:48.348Z,48.60
2018-02-21T13:40:16.575Z,48.50
2018-02-21T13:42:45.670Z,48.90
2018-02-21T13:45:14.806Z,47.90
2018-02-21T13:47:43.116Z,47.90
2018-02-21T13:50:11.324Z,48.00
2018-02-21T13:52:40.367Z,49.60
2018-02-21T13:55:08.636Z,49.60
2018-02-21T13:57:36.964Z,49.70
2018-02-21T14:00:05.238Z,49.60
2018-02-21T14:02:33.504Z,49.90
2018-02-21T14:05:01.858Z,49.60
2018-02-21T14:07:30.113Z,49.90
2018-02-21T14:09:59.161Z,48.70
2018-02-21T14:12:27.416Z,48.70
2018-02-21T14:14:55.681Z,48.60
2018-02-21T14:17:24.713Z,49.90
2018-02-21T14:19:53.012Z,49.80
2018-02-21T14:22:21.314Z,50.70
2018-02-21T14:24:49.626Z,50.70
2018-02-21T14:27:18.638Z,49.40
2018-02-21T14:29:46.896Z,49.40
2018-02-21T14:32:15.906Z,50.10
2018-02-21T14:34:44.362Z,50.10
2018-02-21T14:37:12.809Z,50.00
2018-02-21T14:39:41.076Z,50.60
2018-02-21T14:42:09.335Z,51.10
2018-02-21T14:44:38.370Z,50.90
2018-02-21T14:47:06.667Z,50.90
2018-02-21T14:49:34.935Z,51.40
2018-02-21T14:52:03.198Z,51.90
2018-02-21T14:54:31.486Z,52.40
2018-02-21T14:57:00.168Z,52.60
2018-02-21T14:59:29.284Z,52.70
2018-02-21T15:01:57.546Z,52.70
2018-02-21T15:04:26.453Z,52.60
2018-02-21T15:06:54.701Z,52.90
2018-02-21T15:09:23.731Z,53.60
2018-02-21T15:11:52.024Z,53.60
2018-02-21T15:14:21.007Z,53.60
2018-02-21T15:16:49.256Z,53.60
2018-02-21T15:19:18.284Z,53.80
2018-02-21T15:21:46.566Z,53.80
2018-02-21T15:24:14.869Z,54.00
2018-02-21T15:26:43.144Z,54.50
2018-02-21T15:29:11.407Z,54.50
2018-02-21T15:31:39.661Z,55.00
2018-02-21T15:34:08.730Z,55.60
2018-02-21T15:36:36.962Z,55.50
2018-02-21T15:39:05.271Z,56.00
2018-02-21T15:41:33.549Z,55.90
2018-02-21T15:44:01.918Z,56.40
2018-02-21T15:46:30.182Z,56.80
2018-02-21T15:48:58.470Z,57.30
2018-02-21T15:51:26.718Z,57.50
2018-02-21T15:53:55.001Z,57.80
2018-02-21T15:56:24.038Z,58.40
2018-02-21T15:58:52.298Z,58.40
2018-02-21T16:01:21.353Z,59.90
2018-02-21T16:03:49.606Z,59.30
2018-02-21T16:06:17.880Z,59.80
2018-02-21T16:08:46.180Z,59.40
2018-02-21T16:11:14.456Z,58.80
2018-02-21T16:13:42.829Z,58.50
2018-02-21T16:16:11.042Z,60.10
2018-02-21T16:18:40.059Z,59.60
2018-02-21T16:21:08.393Z,59.90
2018-02-21T16:23:36.721Z,60.30
2018-02-21T16:26:05.877Z,61.00
2018-02-21T16:28:34.158Z,61.40
2018-02-21T16:31:02.433Z,61.80
2018-02-21T16:33:31.309Z,62.10
2018-02-21T16:35:59.646Z,63.00
2018-02-21T16:38:29.434Z,64.50
2018-02-21T16:40:57.812Z,64.40
2018-02-21T16:43:26.099Z,65.30
2018-02-21T16:45:54.387Z,65.70
2018-02-21T16:48:22.638Z,66.60
2018-02-21T16:50:50.903Z,67.90
2018-02-21T16:53:19.234Z,69.30
2018-02-21T16:55:47.499Z,70.80
2018-02-21T16:58:16.755Z,72.20
2018-02-21T17:00:45.029Z,73.30
2018-02-21T17:03:14.049Z,74.20
2018-02-21T17:05:42.331Z,74.20
2018-02-21T17:08:10.635Z,73.50
2018-02-21T17:10:38.905Z,72.60
2018-02-21T17:13:07.154Z,72.10
2018-02-21T17:15:36.192Z,71.90
2018-02-21T17:18:14.441Z,71.80
2018-02-21T17:20:44.839Z,71.60
2018-02-21T17:23:13.092Z,71.70
2018-02-21T17:25:42.593Z,71.10
2018-02-21T17:28:11.606Z,70.80
2018-02-21T17:30:39.886Z,70.80
2018-02-21T17:33:08.925Z,71.20
2018-02-21T17:35:37.177Z,71.10
2018-02-21T17:38:05.463Z,71.50
2018-02-21T17:40:33.750Z,71.80
2018-02-21T17:43:02.609Z,71.80
2018-02-21T17:45:32.458Z,72.60
2018-02-21T17:48:00.782Z,72.60
2018-02-21T17:50:29.028Z,73.40
2018-02-21T17:52:57.310Z,74.20
2018-02-21T17:55:25.573Z,74.80
2018-02-21T17:57:53.830Z,75.80
2018-02-21T18:00:22.864Z,78.40
2018-02-21T18:02:51.160Z,78.40
2018-02-21T18:05:20.335Z,79.40
2018-02-21T18:07:48.617Z,80.40
2018-02-21T18:10:17.621Z,82.80
2018-02-21T18:12:45.871Z,82.80
2018-02-21T18:15:15.013Z,83.50
2018-02-21T18:17:43.274Z,83.60
2018-02-21T18:20:11.542Z,83.50
2018-02-21T18:22:39.799Z,83.70
2018-02-21T18:25:08.133Z,83.70
2018-02-21T18:27:36.417Z,84.10
2018-02-21T18:30:04.678Z,84.30
2018-02-21T18:32:32.930Z,84.60
2018-02-21T18:35:02.031Z,83.90
2018-02-21T18:37:30.408Z,83.90
2018-02-21T18:39:58.667Z,84.10
2018-02-21T18:42:26.944Z,83.70
2018-02-21T18:44:55.311Z,83.20
2018-02-21T18:47:23.605Z,82.90
2018-02-21T18:49:51.876Z,82.90
2018-02-21T18:52:20.149Z,82.80
2018-02-21T18:54:48.467Z,82.70
2018-02-21T18:57:16.703Z,83.10
2018-02-21T18:59:44.999Z,83.70
2018-02-21T19:02:13.267Z,84.30
2018-02-21T19:04:41.506Z,84.20
2018-02-21T19:07:10.674Z,84.40
2018-02-21T19:09:38.938Z,84.40
2018-02-21T19:12:07.211Z,84.90
2018-02-21T19:14:35.460Z,84.90
2018-02-21T19:17:04.594Z,85.50
2018-02-21T19:19:32.897Z,85.60
2018-02-21T19:22:01.259Z,85.70
2018-02-21T19:24:29.510Z,86.10
2018-02-21T19:26:57.793Z,85.80
2018-02-21T19:29:26.037Z,86.00
2018-02-21T19:31:54.313Z,85.80
2018-02-21T19:34:22.582Z,84.60
2018-02-21T19:36:50.848Z,84.50
2018-02-21T19:39:19.702Z,84.40
2018-02-21T19:41:47.971Z,84.00
2018-02-21T19:44:16.235Z,84.10
2018-02-21T19:46:44.493Z,84.70
2018-02-21T19:49:12.764Z,84.50
2018-02-21T19:51:41.043Z,85.00
2018-02-21T19:54:09.294Z,85.60
2018-02-21T19:56:37.577Z,85.70
2018-02-21T19:59:05.822Z,86.30
2018-02-21T20:01:34.106Z,86.70
2018-02-21T20:04:02.356Z,87.60
2018-02-21T20:06:30.642Z,88.50
2018-02-21T20:08:58.919Z,88.80
2018-02-21T20:11:27.198Z,89.20
2018-02-21T20:13:55.466Z,89.50
2018-02-21T20:16:23.712Z,90.10
2018-02-21T20:18:52.758Z,89.50
2018-02-21T20:21:21.009Z,89.40
2018-02-21T20:23:49.267Z,89.80
2018-02-21T20:26:18.282Z,90.10
2018-02-21T20:28:46.868Z,90.10
2018-02-21T20:31:15.117Z,89.60
2018-02-21T20:33:43.389Z,89.10
2018-02-21T20:36:13.173Z,89.10
2018-02-21T20:38:41.421Z,89.00
2018-02-21T20:41:09.682Z,89.20
2018-02-21T20:43:38.714Z,89.80
2018-02-21T20:46:07.039Z,89.80
2018-02-21T20:48:35.305Z,89.90
2018-02-21T20:51:03.558Z,89.60
2018-02-21T20:53:31.825Z,89.60
2018-02-21T20:56:00.138Z,89.30
2018-02-21T20:58:28.414Z,89.40
2018-02-21T21:00:56.703Z,89.70
2018-02-21T21:03:25.111Z,90.00
2018-02-21T21:05:53.523Z,89.90
2018-02-21T21:08:22.600Z,89.60
2018-02-21T21:10:50.913Z,90.00
2018-02-21T21:13:20.703Z,90.20
2018-02-21T21:15:49.073Z,90.20
2018-02-21T21:18:17.440Z,90.30
2018-02-21T21:20:45.691Z,90.60
2018-02-21T21:23:13.935Z,90.60
2018-02-21T21:25:42.202Z,90.70
2018-02-21T21:28:10.493Z,90.60
2018-02-21T21:30:38.843Z,90.90
2018-02-21T21:33:07.122Z,90.70
2018-02-21T21:35:35.389Z,90.60
2018-02-21T21:38:03.654Z,90.60
2018-02-21T21:40:32.001Z,90.50
2018-02-21T21:43:00.252Z,90.50
2018-02-21T21:45:28.506Z,90.40
2018-02-21T21:47:57.508Z,90.50
2018-02-21T21:50:25.781Z,90.50
2018-02-21T21:52:54.027Z,90.70
2018-02-21T21:55:23.116Z,91.20
2018-02-21T21:57:51.375Z,91.20
2018-02-21T22:00:19.654Z,90.90
2018-02-21T22:02:48.063Z,90.80
2018-02-21T22:05:16.310Z,90.60
2018-02-21T22:07:44.582Z,90.60
2018-02-21T22:10:12.884Z,90.60
2018-02-21T22:12:41.189Z,90.60
2018-02-21T22:15:09.417Z,90.60
2018-02-21T22:17:37.691Z,90.60
2018-02-21T22:20:05.952Z,90.60
2018-02-21T22:22:34.977Z,90.50
2018-02-21T22:25:03.294Z,90.50
2018-02-21T22:27:31.785Z,90.60
2018-02-21T22:30:00.050Z,90.70
2018-02-21T22:32:28.313Z,90.80
2018-02-21T22:34:56.601Z,90.90
2018-02-21T22:37:24.888Z,90.80
2018-02-21T22:39:53.185Z,90.70
2018-02-21T22:42:21.456Z,90.80
2018-02-21T22:44:49.731Z,90.90
2018-02-21T22:47:18.016Z,91.00
2018-02-21T22:49:46.288Z,90.90
2018-02-21T22:52:14.558Z,90.70
2018-02-21T22:54:42.802Z,90.80
2018-02-21T22:57:11.833Z,90.70
2018-02-21T22:59:40.102Z,90.70
2018-02-21T23:02:08.420Z,90.70
2018-02-21T23:04:36.685Z,90.70
2018-02-21T23:07:04.948Z,90.50
2018-02-21T23:09:33.222Z,90.40
2018-02-21T23:12:01.539Z,90.40
2018-02-21T23:14:29.798Z,90.40
2018-02-21T23:16:58.050Z,90.40
2018-02-21T23:19:27.090Z,90.40
2018-02-21T23:21:55.338Z,90.40
2018-02-21T23:24:23.597Z,90.30
2018-02-21T23:26:52.614Z,90.50
2018-02-21T23:29:21.646Z,90.40
2018-02-21T23:31:49.906Z,90.40
2018-02-21T23:34:18.930Z,90.40
2018-02-21T23:36:47.184Z,90.40
2018-02-21T23:39:15.455Z,90.30
2018-02-21T23:41:44.487Z,90.50
2018-02-21T23:44:12.770Z,90.50
2018-02-21T23:46:41.045Z,90.50
2018-02-21T23:49:09.330Z,90.40
2018-02-21T23:51:37.850Z,90.30
2018-02-21T23:54:06.109Z,90.30
2018-02-21T23:56:34.373Z,90.40
2018-02-21T23:59:02.671Z,90.30
